Map

Track Data

SID SEASON NUMBER BASIN SUBBASIN NAME ISO_TIME NATURE LAT LON WMO_WIND WMO_PRES WMO_AGENCY TRACK_TYPE DIST2LAND LANDFALL IFLAG USA_AGENCY USA_ATCF_ID USA_LAT USA_LON USA_RECORD USA_STATUS USA_WIND USA_PRES USA_SSHS USA_R34_NE USA_R34_SE USA_R34_SW USA_R34_NW USA_R50_NE USA_R50_SE USA_R50_SW USA_R50_NW USA_R64_NE USA_R64_SE USA_R64_SW USA_R64_NW USA_POCI USA_ROCI USA_RMW USA_EYE TOKYO_LAT TOKYO_LON TOKYO_GRADE TOKYO_WIND TOKYO_PRES TOKYO_R50_DIR TOKYO_R50_LONG TOKYO_R50_SHORT TOKYO_R30_DIR TOKYO_R30_LONG TOKYO_R30_SHORT TOKYO_LAND CMA_LAT CMA_LON CMA_CAT CMA_WIND CMA_PRES HKO_LAT HKO_LON HKO_CAT HKO_WIND HKO_PRES NEWDELHI_LAT NEWDELHI_LON NEWDELHI_GRADE NEWDELHI_WIND NEWDELHI_PRES NEWDELHI_CI NEWDELHI_DP NEWDELHI_POCI REUNION_LAT REUNION_LON REUNION_TYPE REUNION_WIND REUNION_PRES REUNION_TNUM REUNION_CI REUNION_RMW REUNION_R34_NE REUNION_R34_SE REUNION_R34_SW REUNION_R34_NW REUNION_R50_NE REUNION_R50_SE REUNION_R50_SW REUNION_R50_NW REUNION_R64_NE REUNION_R64_SE REUNION_R64_SW REUNION_R64_NW BOM_LAT BOM_LON BOM_TYPE BOM_WIND BOM_PRES BOM_TNUM BOM_CI BOM_RMW BOM_R34_NE BOM_R34_SE BOM_R34_SW BOM_R34_NW BOM_R50_NE BOM_R50_SE BOM_R50_SW BOM_R50_NW BOM_R64_NE BOM_R64_SE BOM_R64_SW BOM_R64_NW BOM_ROCI BOM_POCI BOM_EYE BOM_POS_METHOD BOM_PRES_METHOD NADI_LAT NADI_LON NADI_CAT NADI_WIND NADI_PRES WELLINGTON_LAT WELLINGTON_LON WELLINGTON_WIND WELLINGTON_PRES DS824_LAT DS824_LON DS824_STAGE DS824_WIND DS824_PRES TD9636_LAT TD9636_LON TD9636_STAGE TD9636_WIND TD9636_PRES TD9635_LAT TD9635_LON TD9635_WIND TD9635_PRES TD9635_ROCI NEUMANN_LAT NEUMANN_LON NEUMANN_CLASS NEUMANN_WIND NEUMANN_PRES MLC_LAT MLC_LON MLC_CLASS MLC_WIND MLC_PRES USA_GUST BOM_GUST BOM_GUST_PER REUNION_GUST REUNION_GUST_PER USA_SEAHGT USA_SEARAD_NE USA_SEARAD_SE USA_SEARAD_SW USA_SEARAD_NW STORM_SPEED STORM_DIR
1902140N13128 1902 16 WP MM NOT_NAMED 1902-05-19 16:00:00 NR 13.4000 128.000 main 302 294 __________O___ -1 13.4000 128.000 7 23 322
1902140N13128 1902 16 WP MM NOT_NAMED 1902-05-19 18:00:00 NR 14.0064 127.507 main 295 277 __________P___ -1 14.0064 127.507 7 23 322
1902140N13128 1902 16 WP MM NOT_NAMED 1902-05-19 21:00:00 NR 14.8878 126.786 main 281 264 __________P___ -1 14.8878 126.786 7 22 322
1902140N13128 1902 16 WP MM NOT_NAMED 1902-05-20 00:00:00 NR 15.6987 126.124 main 271 271 __________P___ -1 15.6987 126.124 7 19 322
1902140N13128 1902 16 WP MM NOT_NAMED 1902-05-20 03:00:00 NR 16.3984 125.559 main 302 297 __________P___ -1 16.3984 125.559 7 17 322
1902140N13128 1902 16 WP MM NOT_NAMED 1902-05-20 04:00:00 NR 16.6000 125.400 main 310 276 __________O___ -1 16.6000 125.400 7 14 323
1902140N13128 1902 16 WP MM NOT_NAMED 1902-05-20 06:00:00 NR 16.9518 125.129 main 276 248 __________P___ -1 16.9518 125.129 7 11 325
1902140N13128 1902 16 WP MM NOT_NAMED 1902-05-20 09:00:00 NR 17.3792 124.826 main 248 236 __________P___ -1 17.3792 124.826 7 9 328
1902140N13128 1902 16 WP MM NOT_NAMED 1902-05-20 12:00:00 NR 17.7365 124.612 main 236 222 __________P___ -1 17.7365 124.612 7 8 333
1902140N13128 1902 16 WP MM NOT_NAMED 1902-05-20 15:00:00 NR 18.0793 124.450 main 222 222 __________P___ -1 18.0793 124.450 7 8 337
1902140N13128 1902 16 WP MM NOT_NAMED 1902-05-20 16:00:00 NR 18.2000 124.400 main 222 211 __________O___ -1 18.2000 124.400 7 9 334
1902140N13128 1902 16 WP MM NOT_NAMED 1902-05-20 18:00:00 NR 18.4728 124.251 main 211 192 __________P___ -1 18.4728 124.251 7 9 335
1902140N13128 1902 16 WP MM NOT_NAMED 1902-05-20 21:00:00 NR 18.8943 124.053 main 197 187 __________P___ -1 18.8943 124.053 7 9 339
1902140N13128 1902 16 WP MM NOT_NAMED 1902-05-21 00:00:00 NR 19.3417 123.900 main 196 202 __________P___ -1 19.3417 123.900 7 10 346
1902140N13128 1902 16 WP MM NOT_NAMED 1902-05-21 03:00:00 NR 19.8274 123.812 main 222 230 __________P___ -1 19.8274 123.812 7 10 352
1902140N13128 1902 16 WP MM NOT_NAMED 1902-05-21 04:00:00 NR 20.0000 123.800 main 238 238 __________O___ -1 20.0000 123.800 7 11 0
1902140N13128 1902 16 WP MM NOT_NAMED 1902-05-21 06:00:00 NR 20.3734 123.783 main 273 273 __________P___ -1 20.3734 123.783 7 12 0
1902140N13128 1902 16 WP MM NOT_NAMED 1902-05-21 09:00:00 NR 20.9716 123.821 main 316 306 __________P___ -1 20.9716 123.821 7 12 7
1902140N13128 1902 16 WP MM NOT_NAMED 1902-05-21 12:00:00 NR 21.5907 123.934 main 306 293 __________P___ -1 21.5907 123.934 7 13 13
1902140N13128 1902 16 WP MM NOT_NAMED 1902-05-21 15:00:00 NR 22.2025 124.121 main 294 290 __________P___ -1 22.2025 124.121 7 13 17
1902140N13128 1902 16 WP MM NOT_NAMED 1902-05-21 16:00:00 NR 22.4000 124.200 main 297 294 __________O___ -1 22.4000 124.200 7 12 20
1902140N13128 1902 16 WP MM NOT_NAMED 1902-05-21 18:00:00 NR 22.7747 124.353 main 308 304 __________P___ -1 22.7747 124.353 7 12 24
1902140N13128 1902 16 WP MM NOT_NAMED 1902-05-21 21:00:00 NR 23.3181 124.645 main 305 305 __________P___ -1 23.3181 124.645 7 12 30
1902140N13128 1902 16 WP MM NOT_NAMED 1902-05-22 00:00:00 NR 23.8392 125.009 main 323 321 __________P___ -1 23.8392 125.009 7 13 36
1902140N13128 1902 16 WP MM NOT_NAMED 1902-05-22 03:00:00 NR 24.3384 125.441 main 352 359 __________P___ -1 24.3384 125.441 7 13 39
1902140N13128 1902 16 WP MM NOT_NAMED 1902-05-22 04:00:00 NR 24.5000 125.600 main 367 367 __________O___ -1 24.5000 125.600 2 13 43
1902140N13128 1902 16 WP MM NOT_NAMED 1902-05-22 06:00:00 NR 24.8253 125.935 main 393 403 __________P___ -1 24.8253 125.935 2 14 46
1902140N13128 1902 16 WP MM NOT_NAMED 1902-05-22 09:00:00 NR 25.2943 126.493 main 453 453 __________P___ -1 25.2943 126.493 2 14 49
1902140N13128 1902 16 WP MM NOT_NAMED 1902-05-22 12:00:00 NR 25.7405 127.092 main 518 519 __________P___ -1 25.7405 127.092 2 14 51
1902140N13128 1902 16 WP MM NOT_NAMED 1902-05-22 15:00:00 NR 26.1638 127.701 main 586 586 __________P___ -1 26.1638 127.701 2 14 52
1902140N13128 1902 16 WP MM NOT_NAMED 1902-05-22 16:00:00 NR 26.3000 127.900 main 591 543 __________O___ -1 26.3000 127.900 2 13 52
1902140N13128 1902 16 WP MM NOT_NAMED 1902-05-22 18:00:00 NR 26.5773 128.286 main 543 479 __________P___ -1 26.5773 128.286 2 13 52
1902140N13128 1902 16 WP MM NOT_NAMED 1902-05-22 21:00:00 NR 26.9750 128.858 main 479 431 __________P___ -1 26.9750 128.858 2 13 52
1902140N13128 1902 16 WP MM NOT_NAMED 1902-05-23 00:00:00 NR 27.3477 129.412 main 431 376 __________P___ -1 27.3477 129.412 2 12 53
1902140N13128 1902 16 WP MM NOT_NAMED 1902-05-23 03:00:00 NR 27.6920 129.935 main 376 361 __________P___ -1 27.6920 129.935 2 11 53
1902140N13128 1902 16 WP MM NOT_NAMED 1902-05-23 04:00:00 NR 27.8000 130.100 main 361 336 __________O___ -1 27.8000 130.100 2 11 54
1902140N13128 1902 16 WP MM NOT_NAMED 1902-05-23 06:00:00 NR 28.0081 130.418 main 336 301 __________P___ -1 28.0081 130.418 2 10 54
1902140N13128 1902 16 WP MM NOT_NAMED 1902-05-23 09:00:00 NR 28.2957 130.863 main 301 274 __________P___ -1 28.2957 130.863 2 9 54
1902140N13128 1902 16 WP MM NOT_NAMED 1902-05-23 12:00:00 NR 28.5621 131.278 main 274 260 __________P___ -1 28.5621 131.278 2 9 54
1902140N13128 1902 16 WP MM NOT_NAMED 1902-05-23 15:00:00 NR 28.8164 131.672 main 263 253 __________P___ -1 28.8164 131.672 2 9 54
1902140N13128 1902 16 WP MM NOT_NAMED 1902-05-23 16:00:00 NR 28.9000 131.800 main 257 246 __________O___ -1 28.9000 131.800 2 8 53
1902140N13128 1902 16 WP MM NOT_NAMED 1902-05-23 18:00:00 NR 29.0671 132.054 main 251 244 __________P___ -1 29.0671 132.054 2 8 53
1902140N13128 1902 16 WP MM NOT_NAMED 1902-05-23 21:00:00 NR 29.3176 132.431 main 250 241 __________P___ -1 29.3176 132.431 2 8 53
1902140N13128 1902 16 WP MM NOT_NAMED 1902-05-24 00:00:00 NR 29.5677 132.804 main 241 237 __________P___ -1 29.5677 132.804 2 8 52
1902140N13128 1902 16 WP MM NOT_NAMED 1902-05-24 03:00:00 NR 29.8171 133.176 main 247 239 __________P___ -1 29.8171 133.176 2 8 52
1902140N13128 1902 16 WP MM NOT_NAMED 1902-05-24 04:00:00 NR 29.9000 133.300 main 246 __________O___ -1 29.9000 133.300 7 8 51

Digital Typhoon Data and Search

About IBTrACS Database

This database is a web-friendly format of International Best Track Archive for Climate Stewardship (IBTrACS), a global best track data archive curated by NOAA dating back to 1842.

Updated: 2021-10-27